createdAt,value
2023-04-07T00:00:28.191Z,1014.56
2023-04-07T00:01:28.235Z,1014.56
2023-04-07T00:02:28.255Z,1014.51
2023-04-07T00:03:28.383Z,1014.48
2023-04-07T00:04:28.641Z,1014.53
2023-04-07T00:05:28.231Z,1014.49
2023-04-07T00:06:28.242Z,1014.48
2023-04-07T00:07:28.250Z,1014.51
2023-04-07T00:08:28.258Z,1014.49
2023-04-07T00:09:28.268Z,1014.51
2023-04-07T00:10:28.284Z,1014.51
2023-04-07T00:11:28.283Z,1014.49
2023-04-07T00:12:28.294Z,1014.51
2023-04-07T00:13:29.470Z,1014.54
2023-04-07T00:14:28.309Z,1014.51
2023-04-07T00:15:28.328Z,1014.50
2023-04-07T00:16:28.329Z,1014.55
2023-04-07T00:17:28.359Z,1014.52
2023-04-07T00:18:28.343Z,1014.52
2023-04-07T00:19:28.357Z,1014.53
2023-04-07T00:20:28.361Z,1014.49
2023-04-07T00:21:28.372Z,1014.49
2023-04-07T00:22:28.380Z,1014.47
2023-04-07T00:23:28.388Z,1014.52
2023-04-07T00:24:34.386Z,1014.52
2023-04-07T00:25:28.408Z,1014.52
2023-04-07T00:26:28.413Z,1014.47
2023-04-07T00:27:28.423Z,1014.52
2023-04-07T00:28:28.431Z,1014.55
2023-04-07T00:29:28.440Z,1014.53
2023-04-07T00:30:28.454Z,1014.50
2023-04-07T00:31:28.488Z,1014.54
2023-04-07T00:32:28.494Z,1014.50
2023-04-07T00:33:28.476Z,1014.50
2023-04-07T00:34:28.481Z,1014.53
2023-04-07T00:35:28.504Z,1014.50
2023-04-07T00:36:28.500Z,1014.49
2023-04-07T00:37:28.513Z,1014.53
2023-04-07T00:38:28.516Z,1014.52
2023-04-07T00:39:28.523Z,1014.52
2023-04-07T00:40:28.553Z,1014.50
2023-04-07T00:41:28.540Z,1014.49
2023-04-07T00:42:28.557Z,1014.44
2023-04-07T00:43:28.582Z,1014.45
2023-04-07T00:44:28.564Z,1014.45
2023-04-07T00:45:28.578Z,1014.40
2023-04-07T00:46:28.674Z,1014.44
2023-04-07T00:47:28.630Z,1014.42
2023-04-07T00:48:28.601Z,1014.39
2023-04-07T00:49:28.605Z,1014.38
2023-04-07T00:50:28.614Z,1014.38
2023-04-07T00:51:28.624Z,1014.38
2023-04-07T00:52:28.636Z,1014.39
2023-04-07T00:53:28.640Z,1014.37
2023-04-07T00:54:28.655Z,1014.37
2023-04-07T00:55:28.668Z,1014.37
2023-04-07T00:56:28.665Z,1014.32
2023-04-07T00:57:28.676Z,1014.35
2023-04-07T00:58:28.682Z,1014.36
2023-04-07T00:59:28.689Z,1014.35
2023-04-07T01:00:28.697Z,1014.35
2023-04-07T01:01:28.810Z,1014.34
2023-04-07T01:02:28.868Z,1014.33
2023-04-07T01:03:28.930Z,1014.31
2023-04-07T01:04:28.856Z,1014.33
2023-04-07T01:05:28.746Z,1014.28
2023-04-07T01:06:28.748Z,1014.30
2023-04-07T01:07:28.760Z,1014.30
2023-04-07T01:08:28.762Z,1014.31
2023-04-07T01:09:28.781Z,1014.30
2023-04-07T01:10:28.778Z,1014.29
2023-04-07T01:11:28.791Z,1014.23
2023-04-07T01:12:28.800Z,1014.26
2023-04-07T01:13:28.822Z,1014.23
2023-04-07T01:14:28.812Z,1014.20
2023-04-07T01:15:28.822Z,1014.19
2023-04-07T01:16:28.872Z,1014.21
2023-04-07T01:17:28.870Z,1014.17
2023-04-07T01:18:28.845Z,1014.15
2023-04-07T01:19:28.853Z,1014.16
2023-04-07T01:20:28.863Z,1014.15
2023-04-07T01:21:28.905Z,1014.16
2023-04-07T01:22:28.878Z,1014.12
2023-04-07T01:23:28.884Z,1014.12
2023-04-07T01:24:28.902Z,1014.13
2023-04-07T01:25:28.909Z,1014.11
2023-04-07T01:26:28.912Z,1014.08
2023-04-07T01:27:28.926Z,1014.08
2023-04-07T01:28:28.927Z,1014.05
2023-04-07T01:29:28.937Z,1014.11
2023-04-07T01:30:28.945Z,1014.05
2023-04-07T01:31:28.978Z,1014.06
2023-04-07T01:32:28.988Z,1014.07
2023-04-07T01:33:28.969Z,1014.04
2023-04-07T01:34:28.982Z,1014.05
2023-04-07T01:35:28.993Z,1014.06
2023-04-07T01:36:28.996Z,1014.05
2023-04-07T01:37:29.003Z,1014.08
2023-04-07T01:38:29.008Z,1014.04
2023-04-07T01:39:29.041Z,1014.03
2023-04-07T01:40:29.043Z,1014.05
2023-04-07T01:41:29.048Z,1014.04
2023-04-07T01:42:29.043Z,1014.02
2023-04-07T01:43:29.051Z,1014.02
2023-04-07T01:44:29.065Z,1014.02
2023-04-07T01:45:29.072Z,1014.02
2023-04-07T01:46:29.076Z,1014.03
2023-04-07T01:47:29.269Z,1014.03
2023-04-07T01:48:29.093Z,1014.02
2023-04-07T01:49:29.101Z,1014.00
2023-04-07T01:50:29.114Z,1014.01
2023-04-07T01:51:29.121Z,1014.05
2023-04-07T01:52:29.127Z,1013.99
2023-04-07T01:53:29.138Z,1013.98
2023-04-07T01:54:29.145Z,1013.98
2023-04-07T01:55:29.150Z,1013.98
2023-04-07T01:56:29.159Z,1013.99
2023-04-07T01:57:29.172Z,1014.00
2023-04-07T01:58:29.178Z,1014.00
2023-04-07T01:59:29.188Z,1013.97
2023-04-07T02:00:29.194Z,1013.99
2023-04-07T02:01:29.302Z,1014.01
2023-04-07T02:02:29.360Z,1013.97
2023-04-07T02:03:29.264Z,1013.96
2023-04-07T02:04:29.223Z,1013.99
2023-04-07T02:05:29.238Z,1014.00
2023-04-07T02:06:29.251Z,1013.98
2023-04-07T02:07:29.260Z,1013.99
2023-04-07T02:08:30.475Z,1013.94
2023-04-07T02:09:29.266Z,1013.95
2023-04-07T02:10:29.280Z,1013.95
2023-04-07T02:11:29.304Z,1013.90
2023-04-07T02:12:29.296Z,1013.93
2023-04-07T02:13:29.314Z,1013.92
2023-04-07T02:14:29.307Z,1013.93
2023-04-07T02:15:29.312Z,1013.96
2023-04-07T02:16:29.361Z,1013.95
2023-04-07T02:17:29.377Z,1013.98
2023-04-07T02:18:29.341Z,1013.92
2023-04-07T02:19:29.347Z,1013.93
2023-04-07T02:20:29.359Z,1013.88
2023-04-07T02:21:29.363Z,1013.87
2023-04-07T02:22:29.379Z,1013.88
2023-04-07T02:23:29.380Z,1013.85
2023-04-07T02:24:29.389Z,1013.87
2023-04-07T02:25:29.402Z,1013.88
2023-04-07T02:26:29.409Z,1013.87
2023-04-07T02:27:29.421Z,1013.86
2023-04-07T02:28:29.420Z,1013.84
2023-04-07T02:29:29.436Z,1013.84
2023-04-07T02:30:29.438Z,1013.85
2023-04-07T02:31:29.483Z,1013.81
2023-04-07T02:32:29.509Z,1013.85
2023-04-07T02:33:29.465Z,1013.84
2023-04-07T02:34:29.470Z,1013.86
2023-04-07T02:35:29.487Z,1013.85
2023-04-07T02:36:29.491Z,1013.83
2023-04-07T02:37:29.493Z,1013.82
2023-04-07T02:38:29.501Z,1013.81
2023-04-07T02:39:29.517Z,1013.80
2023-04-07T02:40:29.518Z,1013.80
2023-04-07T02:41:29.527Z,1013.81
2023-04-07T02:42:29.537Z,1013.82
2023-04-07T02:43:29.539Z,1013.80
2023-04-07T02:44:29.550Z,1013.80
2023-04-07T02:45:29.568Z,1013.74
2023-04-07T02:46:29.624Z,1013.76
2023-04-07T02:47:29.582Z,1013.81
2023-04-07T02:48:29.584Z,1013.77
2023-04-07T02:49:29.591Z,1013.80
2023-04-07T02:50:29.607Z,1013.82
2023-04-07T02:51:29.608Z,1013.80
2023-04-07T02:52:29.617Z,1013.75
2023-04-07T02:53:29.621Z,1013.78
2023-04-07T02:54:29.627Z,1013.80
2023-04-07T02:55:29.645Z,1013.77
2023-04-07T02:56:29.656Z,1013.82
2023-04-07T02:57:29.650Z,1013.78
2023-04-07T02:58:29.662Z,1013.74
2023-04-07T02:59:29.672Z,1013.76
2023-04-07T03:00:29.675Z,1013.78
2023-04-07T03:01:29.740Z,1013.79
2023-04-07T03:02:29.783Z,1013.74
2023-04-07T03:03:29.776Z,1013.78
2023-04-07T03:04:29.729Z,1013.73
2023-04-07T03:05:29.715Z,1013.76
2023-04-07T03:06:29.723Z,1013.78
2023-04-07T03:07:29.733Z,1013.77
2023-04-07T03:08:29.740Z,1013.73
2023-04-07T03:09:29.749Z,1013.75
2023-04-07T03:10:29.766Z,1013.76
2023-04-07T03:11:29.766Z,1013.77
2023-04-07T03:12:29.773Z,1013.74
2023-04-07T03:13:29.786Z,1013.74
2023-04-07T03:14:29.789Z,1013.74
2023-04-07T03:15:29.795Z,1013.75
2023-04-07T03:16:29.939Z,1013.73
2023-04-07T03:17:29.847Z,1013.69
2023-04-07T03:18:29.818Z,1013.72
2023-04-07T03:19:29.826Z,1013.68
2023-04-07T03:20:29.836Z,1013.68
2023-04-07T03:21:29.846Z,1013.66
2023-04-07T03:22:29.852Z,1013.63
2023-04-07T03:23:29.861Z,1013.67
2023-04-07T03:24:29.869Z,1013.66
2023-04-07T03:25:29.879Z,1013.66
2023-04-07T03:26:29.886Z,1013.65
2023-04-07T03:27:29.892Z,1013.62
2023-04-07T03:28:29.910Z,1013.64
2023-04-07T03:29:29.912Z,1013.65
2023-04-07T03:30:29.954Z,1013.63
2023-04-07T03:31:29.933Z,1013.62
2023-04-07T03:32:29.988Z,1013.61
2023-04-07T03:33:29.962Z,1013.58
2023-04-07T03:34:29.953Z,1013.56
2023-04-07T03:35:29.967Z,1013.61
2023-04-07T03:36:29.968Z,1013.50
2023-04-07T03:37:29.975Z,1013.53
2023-04-07T03:38:29.984Z,1013.50
2023-04-07T03:39:30.020Z,1013.56
2023-04-07T03:40:30.007Z,1013.50
2023-04-07T03:41:30.005Z,1013.54
2023-04-07T03:42:30.027Z,1013.51
2023-04-07T03:43:30.023Z,1013.52
2023-04-07T03:44:30.032Z,1013.54
2023-04-07T03:45:30.044Z,1013.51
2023-04-07T03:46:30.071Z,1013.57
2023-04-07T03:47:30.076Z,1013.54
2023-04-07T03:48:30.062Z,1013.53
2023-04-07T03:49:30.071Z,1013.56
2023-04-07T03:50:30.086Z,1013.53
2023-04-07T03:51:30.086Z,1013.56
2023-04-07T03:52:30.096Z,1013.53
2023-04-07T03:53:30.108Z,1013.54
2023-04-07T03:54:30.112Z,1013.51
2023-04-07T03:55:30.123Z,1013.51
2023-04-07T03:56:30.136Z,1013.50
2023-04-07T03:57:30.138Z,1013.47
2023-04-07T03:58:30.151Z,1013.44
2023-04-07T03:59:30.157Z,1013.44
2023-04-07T04:00:30.162Z,1013.43
2023-04-07T04:01:30.186Z,1013.49
2023-04-07T04:02:30.245Z,1013.49
2023-04-07T04:03:30.295Z,1013.47
2023-04-07T04:04:30.228Z,1013.48
2023-04-07T04:05:30.205Z,1013.45
2023-04-07T04:06:30.213Z,1013.45
2023-04-07T04:07:30.226Z,1013.46
2023-04-07T04:08:30.231Z,1013.47
2023-04-07T04:09:30.246Z,1013.48
2023-04-07T04:10:30.247Z,1013.47
2023-04-07T04:11:30.253Z,1013.47
2023-04-07T04:12:30.263Z,1013.46
2023-04-07T04:13:30.272Z,1013.50
2023-04-07T04:14:30.295Z,1013.49
2023-04-07T04:15:30.289Z,1013.49
2023-04-07T04:16:30.434Z,1013.49
2023-04-07T04:17:30.354Z,1013.51
2023-04-07T04:18:30.318Z,1013.53
2023-04-07T04:19:30.324Z,1013.52
2023-04-07T04:20:30.343Z,1013.52
2023-04-07T04:21:30.347Z,1013.51
2023-04-07T04:22:30.347Z,1013.50
2023-04-07T04:23:30.357Z,1013.52
2023-04-07T04:24:30.374Z,1013.54
2023-04-07T04:25:30.382Z,1013.55
2023-04-07T04:26:30.384Z,1013.54
2023-04-07T04:27:30.394Z,1013.58
2023-04-07T04:28:30.400Z,1013.55
2023-04-07T04:29:31.705Z,1013.55
2023-04-07T04:30:30.417Z,1013.52
2023-04-07T04:31:30.439Z,1013.50
2023-04-07T04:32:30.466Z,1013.51
2023-04-07T04:33:30.446Z,1013.53
2023-04-07T04:34:30.455Z,1013.54
2023-04-07T04:35:30.496Z,1013.52
2023-04-07T04:36:30.473Z,1013.47
2023-04-07T04:37:30.484Z,1013.48
2023-04-07T04:38:30.488Z,1013.51
2023-04-07T04:39:30.499Z,1013.53
2023-04-07T04:40:30.514Z,1013.53
2023-04-07T04:41:30.520Z,1013.52
2023-04-07T04:42:30.526Z,1013.51
2023-04-07T04:43:30.543Z,1013.54
2023-04-07T04:44:30.542Z,1013.54
2023-04-07T04:45:30.551Z,1013.50
2023-04-07T04:46:30.615Z,1013.52
2023-04-07T04:47:30.606Z,1013.52
2023-04-07T04:48:30.578Z,1013.51
2023-04-07T04:49:30.587Z,1013.53
2023-04-07T04:50:30.600Z,1013.53
2023-04-07T04:51:30.614Z,1013.52
2023-04-07T04:52:30.615Z,1013.52
2023-04-07T04:53:30.635Z,1013.52
2023-04-07T04:54:30.632Z,1013.54
2023-04-07T04:55:30.670Z,1013.59
2023-04-07T04:56:30.650Z,1013.62
2023-04-07T04:57:30.664Z,1013.60
2023-04-07T04:58:30.668Z,1013.62
2023-04-07T04:59:30.684Z,1013.63
2023-04-07T05:00:30.694Z,1013.64
2023-04-07T05:01:32.768Z,1013.59
2023-04-07T05:02:30.867Z,1013.64
2023-04-07T05:03:30.921Z,1013.63
2023-04-07T05:04:30.943Z,1013.61
2023-04-07T05:05:30.731Z,1013.59
2023-04-07T05:06:30.742Z,1013.65
2023-04-07T05:07:30.753Z,1013.63
2023-04-07T05:08:30.764Z,1013.66
2023-04-07T05:09:30.768Z,1013.64
2023-04-07T05:10:30.775Z,1013.65
2023-04-07T05:11:30.786Z,1013.65
2023-04-07T05:12:30.801Z,1013.63
2023-04-07T05:13:30.805Z,1013.66
2023-04-07T05:14:30.826Z,1013.68
2023-04-07T05:15:30.835Z,1013.64
2023-04-07T05:16:30.907Z,1013.69
2023-04-07T05:17:30.869Z,1013.62
2023-04-07T05:18:30.857Z,1013.67
2023-04-07T05:19:30.864Z,1013.70
2023-04-07T05:20:30.871Z,1013.72
2023-04-07T05:21:30.891Z,1013.71
2023-04-07T05:22:30.900Z,1013.74
2023-04-07T05:23:30.896Z,1013.72
2023-04-07T05:24:30.908Z,1013.74
2023-04-07T05:25:30.925Z,1013.73
2023-04-07T05:26:30.926Z,1013.74
2023-04-07T05:27:30.944Z,1013.75
2023-04-07T05:28:30.945Z,1013.71
2023-04-07T05:29:30.957Z,1013.71
2023-04-07T05:30:30.974Z,1013.70
2023-04-07T05:31:31.046Z,1013.69
2023-04-07T05:32:31.021Z,1013.72
2023-04-07T05:33:30.996Z,1013.71
2023-04-07T05:34:31.012Z,1013.69
2023-04-07T05:35:31.015Z,1013.69
2023-04-07T05:36:31.096Z,1013.71
2023-04-07T05:37:31.036Z,1013.71
2023-04-07T05:38:31.043Z,1013.70
2023-04-07T05:39:31.053Z,1013.72
2023-04-07T05:40:31.062Z,1013.73
2023-04-07T05:41:31.073Z,1013.72
2023-04-07T05:42:31.082Z,1013.74
2023-04-07T05:43:31.101Z,1013.67
2023-04-07T05:44:31.117Z,1013.77
2023-04-07T05:45:31.162Z,1013.73
2023-04-07T05:46:31.124Z,1013.71
2023-04-07T05:47:31.146Z,1013.74
2023-04-07T05:48:31.173Z,1013.69
2023-04-07T05:49:31.154Z,1013.73
2023-04-07T05:50:31.165Z,1013.74
2023-04-07T05:51:31.173Z,1013.72
2023-04-07T05:52:31.187Z,1013.72
2023-04-07T05:53:31.195Z,1013.72
2023-04-07T05:54:31.203Z,1013.69
2023-04-07T05:55:31.214Z,1013.70
2023-04-07T05:56:31.232Z,1013.67
2023-04-07T05:57:31.235Z,1013.71
2023-04-07T05:58:31.244Z,1013.70
2023-04-07T05:59:31.254Z,1013.71
2023-04-07T06:00:31.265Z,1013.71
2023-04-07T06:01:31.294Z,1013.67
2023-04-07T06:02:31.380Z,1013.72
2023-04-07T06:03:31.425Z,1013.73
2023-04-07T06:04:31.307Z,1013.72
2023-04-07T06:05:31.409Z,1013.74
2023-04-07T06:06:31.415Z,1013.75
2023-04-07T06:07:31.334Z,1013.72
2023-04-07T06:08:31.351Z,1013.76
2023-04-07T06:09:31.354Z,1013.76
2023-04-07T06:10:31.370Z,1013.81
2023-04-07T06:11:31.393Z,1013.77
2023-04-07T06:12:31.387Z,1013.79
2023-04-07T06:13:31.403Z,1013.81
2023-04-07T06:14:31.406Z,1013.80
2023-04-07T06:15:31.424Z,1013.79
2023-04-07T06:16:31.446Z,1013.81
2023-04-07T06:17:31.469Z,1013.80
2023-04-07T06:18:31.449Z,1013.76
2023-04-07T06:19:31.467Z,1013.82
2023-04-07T06:20:31.472Z,1013.84
2023-04-07T06:21:31.496Z,1013.84
2023-04-07T06:22:31.495Z,1013.88
2023-04-07T06:23:31.508Z,1013.89
2023-04-07T06:24:31.516Z,1013.93
2023-04-07T06:25:31.552Z,1013.92
2023-04-07T06:26:31.534Z,1013.91
2023-04-07T06:27:31.545Z,1013.88
2023-04-07T06:28:31.559Z,1013.87
2023-04-07T06:29:31.572Z,1013.89
2023-04-07T06:30:31.648Z,1013.89
2023-04-07T06:31:31.595Z,1013.89
2023-04-07T06:32:31.658Z,1013.88
2023-04-07T06:33:31.662Z,1013.93
2023-04-07T06:34:31.635Z,1013.92
2023-04-07T06:35:31.640Z,1013.93
2023-04-07T06:36:31.681Z,1013.88
2023-04-07T06:37:31.663Z,1013.92
2023-04-07T06:38:31.695Z,1013.91
2023-04-07T06:39:31.681Z,1013.92
2023-04-07T06:40:31.694Z,1013.93
2023-04-07T06:41:31.708Z,1013.89
2023-04-07T06:42:31.722Z,1013.92
2023-04-07T06:43:31.739Z,1013.90
2023-04-07T06:44:31.743Z,1013.87
2023-04-07T06:45:31.759Z,1013.87
2023-04-07T06:46:31.827Z,1013.90
2023-04-07T06:47:31.790Z,1013.84
2023-04-07T06:48:31.789Z,1013.88
2023-04-07T06:49:31.812Z,1013.84
2023-04-07T06:50:31.836Z,1013.89
2023-04-07T06:51:31.833Z,1013.89
2023-04-07T06:52:31.837Z,1013.92
2023-04-07T06:53:31.845Z,1013.95
2023-04-07T06:54:31.859Z,1013.92
2023-04-07T06:55:31.869Z,1013.96
2023-04-07T06:56:31.885Z,1013.93
2023-04-07T06:57:31.895Z,1013.94
2023-04-07T06:58:31.922Z,1013.95
2023-04-07T06:59:31.922Z,1013.97
2023-04-07T07:00:31.934Z,1013.93
2023-04-07T07:01:31.992Z,1013.92
2023-04-07T07:02:32.041Z,1013.95
2023-04-07T07:03:32.085Z,1013.93
2023-04-07T07:04:32.036Z,1013.97
2023-04-07T07:05:31.993Z,1013.96
2023-04-07T07:06:32.006Z,1013.96
2023-04-07T07:07:32.013Z,1013.92
2023-04-07T07:08:32.031Z,1013.97
2023-04-07T07:09:32.052Z,1014.03
2023-04-07T07:10:32.051Z,1013.98
2023-04-07T07:11:32.069Z,1014.04
2023-04-07T07:12:32.076Z,1014.01
2023-04-07T07:13:32.100Z,1014.02
2023-04-07T07:14:32.104Z,1014.02
2023-04-07T07:15:32.125Z,1014.05
2023-04-07T07:16:32.121Z,1014.03
2023-04-07T07:17:32.168Z,1014.07
2023-04-07T07:18:32.149Z,1014.12
2023-04-07T07:19:32.160Z,1014.10
2023-04-07T07:20:32.179Z,1014.07
2023-04-07T07:21:32.181Z,1014.10
2023-04-07T07:22:32.194Z,1014.07
2023-04-07T07:23:32.207Z,1014.07
2023-04-07T07:24:32.219Z,1014.08
2023-04-07T07:25:32.228Z,1014.09
2023-04-07T07:26:32.242Z,1014.09
2023-04-07T07:27:32.259Z,1014.12
2023-04-07T07:28:32.271Z,1014.10
2023-04-07T07:29:32.289Z,1014.16
2023-04-07T07:30:32.290Z,1014.15
2023-04-07T07:31:32.399Z,1014.16
2023-04-07T07:32:32.323Z,1014.16
2023-04-07T07:33:32.328Z,1014.19
2023-04-07T07:34:32.341Z,1014.24
2023-04-07T07:35:32.353Z,1014.23
2023-04-07T07:36:32.368Z,1014.26
2023-04-07T07:37:32.379Z,1014.25
2023-04-07T07:38:32.804Z,1014.30
2023-04-07T07:39:32.408Z,1014.23
2023-04-07T07:40:32.418Z,1014.28
2023-04-07T07:41:32.430Z,1014.28
2023-04-07T07:42:32.448Z,1014.29
2023-04-07T07:43:32.466Z,1014.30
2023-04-07T07:44:32.647Z,1014.27
2023-04-07T07:45:32.491Z,1014.28
2023-04-07T07:46:32.531Z,1014.29
2023-04-07T07:47:32.540Z,1014.27
2023-04-07T07:48:32.534Z,1014.30
2023-04-07T07:49:32.535Z,1014.33
2023-04-07T07:50:32.691Z,1014.35
2023-04-07T07:51:32.563Z,1014.36
2023-04-07T07:52:32.575Z,1014.34
2023-04-07T07:53:32.589Z,1014.32
2023-04-07T07:54:32.606Z,1014.36
2023-04-07T07:55:32.625Z,1014.32
2023-04-07T07:56:32.630Z,1014.31
2023-04-07T07:57:32.645Z,1014.34
2023-04-07T07:58:32.663Z,1014.33
2023-04-07T07:59:32.682Z,1014.35
2023-04-07T08:00:32.683Z,1014.29
2023-04-07T08:01:32.734Z,1014.34
2023-04-07T08:02:32.821Z,1014.33
2023-04-07T08:03:32.985Z,1014.30
2023-04-07T08:04:32.826Z,1014.32
2023-04-07T08:05:32.755Z,1014.30
2023-04-07T08:06:32.769Z,1014.32
2023-04-07T08:07:32.810Z,1014.32
2023-04-07T08:08:32.802Z,1014.33
2023-04-07T08:09:32.813Z,1014.28
2023-04-07T08:10:32.827Z,1014.29
2023-04-07T08:11:32.840Z,1014.29
2023-04-07T08:12:32.853Z,1014.30
2023-04-07T08:13:32.868Z,1014.28
2023-04-07T08:14:32.884Z,1014.25
2023-04-07T08:15:32.894Z,1014.32
2023-04-07T08:16:32.965Z,1014.33
2023-04-07T08:17:32.936Z,1014.35
2023-04-07T08:18:32.938Z,1014.36
2023-04-07T08:19:32.951Z,1014.36
2023-04-07T08:20:32.972Z,1014.37
2023-04-07T08:21:32.990Z,1014.38
2023-04-07T08:22:32.995Z,1014.37
2023-04-07T08:23:33.009Z,1014.36
2023-04-07T08:24:33.033Z,1014.26
2023-04-07T08:25:33.046Z,1014.28
2023-04-07T08:26:33.057Z,1014.28
2023-04-07T08:27:33.076Z,1014.23
2023-04-07T08:28:33.081Z,1014.23
2023-04-07T08:29:33.116Z,1014.24
2023-04-07T08:30:33.113Z,1014.33
2023-04-07T08:31:33.143Z,1014.33
2023-04-07T08:32:33.192Z,1014.34
2023-04-07T08:33:33.160Z,1014.36
2023-04-07T08:34:33.176Z,1014.35
2023-04-07T08:35:33.186Z,1014.41
2023-04-07T08:36:33.216Z,1014.40
2023-04-07T08:37:33.210Z,1014.42
2023-04-07T08:38:33.228Z,1014.40
2023-04-07T08:39:33.241Z,1014.44
2023-04-07T08:40:33.257Z,1014.46
2023-04-07T08:41:33.281Z,1014.44
2023-04-07T08:42:33.283Z,1014.43
2023-04-07T08:43:33.306Z,1014.46
2023-04-07T08:44:33.313Z,1014.45
2023-04-07T08:45:33.328Z,1014.39
2023-04-07T08:46:33.390Z,1014.44
2023-04-07T08:47:33.420Z,1014.42
2023-04-07T08:48:33.400Z,1014.43
2023-04-07T08:49:33.393Z,1014.44
2023-04-07T08:50:33.420Z,1014.48
2023-04-07T08:51:33.431Z,1014.48
2023-04-07T08:52:33.437Z,1014.47
2023-04-07T08:53:33.448Z,1014.46
2023-04-07T08:54:33.463Z,1014.46
2023-04-07T08:55:33.480Z,1014.45
2023-04-07T08:56:33.495Z,1014.47
2023-04-07T08:57:33.512Z,1014.45
2023-04-07T08:58:33.528Z,1014.42
2023-04-07T08:59:33.543Z,1014.50
2023-04-07T09:00:33.557Z,1014.46
2023-04-07T09:01:33.776Z,1014.43
2023-04-07T09:02:33.771Z,1014.47
2023-04-07T09:03:33.668Z,1014.47
2023-04-07T09:04:33.639Z,1014.49
2023-04-07T09:05:33.652Z,1014.54
2023-04-07T09:06:33.654Z,1014.51
2023-04-07T09:07:33.681Z,1014.55
2023-04-07T09:08:33.684Z,1014.55
2023-04-07T09:09:33.705Z,1014.57
2023-04-07T09:10:33.714Z,1014.58
2023-04-07T09:11:33.735Z,1014.56
2023-04-07T09:12:33.747Z,1014.59
2023-04-07T09:13:33.765Z,1014.59
2023-04-07T09:14:33.780Z,1014.63
2023-04-07T09:15:33.793Z,1014.61
2023-04-07T09:16:33.937Z,1014.64
2023-04-07T09:17:33.869Z,1014.64
2023-04-07T09:18:33.839Z,1014.64
2023-04-07T09:19:33.853Z,1014.61
2023-04-07T09:20:33.871Z,1014.59
2023-04-07T09:21:33.885Z,1014.60
2023-04-07T09:22:33.903Z,1014.59
2023-04-07T09:23:33.943Z,1014.60
2023-04-07T09:24:33.936Z,1014.57
2023-04-07T09:25:33.963Z,1014.51
2023-04-07T09:26:33.963Z,1014.55
2023-04-07T09:27:33.980Z,1014.55
2023-04-07T09:28:33.997Z,1014.51
2023-04-07T09:29:34.010Z,1014.52
2023-04-07T09:30:34.023Z,1014.48
2023-04-07T09:31:34.063Z,1014.49
2023-04-07T09:32:34.079Z,1014.51
2023-04-07T09:33:34.070Z,1014.46
2023-04-07T09:34:34.085Z,1014.48
2023-04-07T09:35:34.116Z,1014.49
2023-04-07T09:36:34.116Z,1014.53
2023-04-07T09:37:34.134Z,1014.59
2023-04-07T09:38:34.149Z,1014.59
2023-04-07T09:39:34.162Z,1014.60
2023-04-07T09:40:34.187Z,1014.61
2023-04-07T09:41:34.226Z,1014.61
2023-04-07T09:42:34.204Z,1014.59
2023-04-07T09:43:34.217Z,1014.64
2023-04-07T09:44:34.232Z,1014.64
2023-04-07T09:45:36.268Z,1014.63
2023-04-07T09:46:34.280Z,1014.65
2023-04-07T09:47:34.303Z,1014.64
2023-04-07T09:48:34.295Z,1014.64
2023-04-07T09:49:34.306Z,1014.67
2023-04-07T09:50:34.322Z,1014.63
2023-04-07T09:51:34.425Z,1014.66
2023-04-07T09:52:34.354Z,1014.70
2023-04-07T09:53:34.363Z,1014.67
2023-04-07T09:54:34.403Z,1014.66
2023-04-07T09:55:34.420Z,1014.67
2023-04-07T09:56:34.408Z,1014.68
2023-04-07T09:57:34.424Z,1014.72
2023-04-07T09:58:34.442Z,1014.67
2023-04-07T09:59:34.457Z,1014.72
2023-04-07T10:00:34.474Z,1014.69
2023-04-07T10:01:34.519Z,1014.72
2023-04-07T10:02:34.531Z,1014.68
2023-04-07T10:03:34.550Z,1014.72
2023-04-07T10:04:34.565Z,1014.74
2023-04-07T10:05:34.540Z,1014.78
2023-04-07T10:06:34.550Z,1014.77
2023-04-07T10:07:34.571Z,1014.72
2023-04-07T10:08:34.583Z,1014.77
2023-04-07T10:09:34.594Z,1014.75
2023-04-07T10:10:34.608Z,1014.75
2023-04-07T10:11:34.638Z,1014.71
2023-04-07T10:12:34.668Z,1014.74
2023-04-07T10:13:34.656Z,1014.71
2023-04-07T10:14:34.668Z,1014.71
2023-04-07T10:15:34.679Z,1014.70
2023-04-07T10:16:34.714Z,1014.73
2023-04-07T10:17:34.791Z,1014.71
2023-04-07T10:18:34.725Z,1014.74
2023-04-07T10:19:34.742Z,1014.74
2023-04-07T10:20:34.755Z,1014.69
2023-04-07T10:21:34.769Z,1014.72
2023-04-07T10:22:34.782Z,1014.69
2023-04-07T10:23:34.801Z,1014.71
2023-04-07T10:24:34.816Z,1014.63
2023-04-07T10:25:34.829Z,1014.71
2023-04-07T10:26:34.844Z,1014.71
2023-04-07T10:27:34.859Z,1014.69
2023-04-07T10:28:34.873Z,1014.72
2023-04-07T10:29:34.889Z,1014.67
2023-04-07T10:30:34.903Z,1014.70
2023-04-07T10:31:34.945Z,1014.67
2023-04-07T10:32:35.001Z,1014.69
2023-04-07T10:33:34.948Z,1014.64
2023-04-07T10:34:34.966Z,1014.66
2023-04-07T10:35:34.992Z,1014.66
2023-04-07T10:36:34.993Z,1014.69
2023-04-07T10:37:35.017Z,1014.65
2023-04-07T10:38:35.031Z,1014.70
2023-04-07T10:39:35.036Z,1014.66
2023-04-07T10:40:35.049Z,1014.62
2023-04-07T10:41:35.066Z,1014.70
2023-04-07T10:42:35.080Z,1014.70
2023-04-07T10:43:35.099Z,1014.68
2023-04-07T10:44:35.111Z,1014.64
2023-04-07T10:45:35.137Z,1014.70
2023-04-07T10:46:35.163Z,1014.67
2023-04-07T10:47:35.194Z,1014.66
2023-04-07T10:48:35.166Z,1014.72
2023-04-07T10:49:35.188Z,1014.75
2023-04-07T10:50:35.196Z,1014.72
2023-04-07T10:51:35.213Z,1014.68
2023-04-07T10:52:35.224Z,1014.67
2023-04-07T10:53:35.437Z,1014.69
2023-04-07T10:54:35.254Z,1014.71
2023-04-07T10:55:35.269Z,1014.71
2023-04-07T10:56:35.284Z,1014.70
2023-04-07T10:57:35.301Z,1014.74
2023-04-07T10:58:35.326Z,1014.69
2023-04-07T10:59:35.330Z,1014.69
2023-04-07T11:00:35.343Z,1014.69
2023-04-07T11:01:35.419Z,1014.67
2023-04-07T11:02:35.615Z,1014.67
2023-04-07T11:03:35.466Z,1014.71
2023-04-07T11:04:35.483Z,1014.69
2023-04-07T11:05:35.414Z,1014.66
2023-04-07T11:06:35.431Z,1014.61
2023-04-07T11:07:35.449Z,1014.64
2023-04-07T11:08:35.502Z,1014.63
2023-04-07T11:09:35.474Z,1014.68
2023-04-07T11:10:35.493Z,1014.67
2023-04-07T11:11:35.504Z,1014.65
2023-04-07T11:12:35.520Z,1014.62
2023-04-07T11:13:35.546Z,1014.60
2023-04-07T11:14:36.922Z,1014.63
2023-04-07T11:15:37.037Z,1014.61
2023-04-07T11:16:35.619Z,1014.62
2023-04-07T11:17:35.618Z,1014.62
2023-04-07T11:18:35.610Z,1014.62
2023-04-07T11:19:35.629Z,1014.65
2023-04-07T11:20:35.649Z,1014.68
2023-04-07T11:21:35.664Z,1014.68
2023-04-07T11:22:35.682Z,1014.66
2023-04-07T11:23:35.686Z,1014.66
2023-04-07T11:24:35.703Z,1014.68
2023-04-07T11:25:35.721Z,1014.70
2023-04-07T11:26:35.734Z,1014.70
2023-04-07T11:27:35.751Z,1014.65
2023-04-07T11:28:35.764Z,1014.62
2023-04-07T11:29:35.780Z,1014.66
2023-04-07T11:30:35.794Z,1014.65
2023-04-07T11:31:35.860Z,1014.65
2023-04-07T11:32:35.832Z,1014.65
2023-04-07T11:33:35.842Z,1014.59
2023-04-07T11:34:35.854Z,1014.61
2023-04-07T11:35:35.884Z,1014.62
2023-04-07T11:36:35.904Z,1014.65
2023-04-07T11:37:35.899Z,1014.65
2023-04-07T11:38:35.917Z,1014.61
2023-04-07T11:39:35.928Z,1014.61
2023-04-07T11:40:35.958Z,1014.61
2023-04-07T11:41:35.958Z,1014.58
2023-04-07T11:42:35.984Z,1014.62
2023-04-07T11:43:35.987Z,1014.58
2023-04-07T11:44:36.005Z,1014.59
2023-04-07T11:45:36.021Z,1014.56
2023-04-07T11:46:36.136Z,1014.57
2023-04-07T11:47:36.108Z,1014.53
2023-04-07T11:48:36.065Z,1014.61
2023-04-07T11:49:36.077Z,1014.65
2023-04-07T11:50:36.091Z,1014.63
2023-04-07T11:51:36.125Z,1014.62
2023-04-07T11:52:36.120Z,1014.66
2023-04-07T11:53:36.133Z,1014.68
2023-04-07T11:54:36.152Z,1014.66
2023-04-07T11:55:36.165Z,1014.69
2023-04-07T11:56:36.179Z,1014.68
2023-04-07T11:57:36.191Z,1014.71
2023-04-07T11:58:36.204Z,1014.68
2023-04-07T11:59:36.219Z,1014.77
2023-04-07T12:00:36.238Z,1014.69
2023-04-07T12:01:36.271Z,1014.78
2023-04-07T12:02:36.452Z,1014.72
2023-04-07T12:03:36.379Z,1014.72
2023-04-07T12:04:36.434Z,1014.72
2023-04-07T12:05:36.311Z,1014.75